Terminal Aerodrome Forecast
Issued by NWS Milwaukee/Sullivan, WI

Home | Current Version | Previous Version | Text Only | Print | Product List | Glossary On
Versions: 1 2 3 4 5 6 7 8 9 10 11 12 13 14 15 16 17 18 19 20 21 22 23 24 25 26 27 28 29 30 31 32 33 34 35 36 37 38
000
FTUS43 KMKX 241421 AAA
TAFMSN
TAF AMD
KMSN 241421Z 2414/2512 16008KT P6SM -SHRA OVC080
     FM241900 12011KT 6SM -SHRA BR OVC035
     FM242300 13011KT 3SM BR VCSH OVC030
     FM250300 14011KT 3SM SHRA BR OVC020 WS020/20045KT
     FM251100 18011G18KT 3SM SHRA BR OVC015=

USA.gov is the U.S. government's official web portal to all federal, state and local government web resources and services.